createdAt,value
2018-05-17T00:01:09.680Z,98989.70
2018-05-17T00:03:37.940Z,98992.94
2018-05-17T00:06:06.296Z,98994.03
2018-05-17T00:08:34.610Z,98989.83
2018-05-17T00:11:02.882Z,98992.58
2018-05-17T00:13:31.533Z,98985.58
2018-05-17T00:15:59.833Z,98988.45
2018-05-17T00:18:28.115Z,98987.88
2018-05-17T00:20:56.366Z,98986.95
2018-05-17T00:23:24.681Z,98995.78
2018-05-17T00:25:52.961Z,98995.13
2018-05-17T00:28:21.497Z,98986.98
2018-05-17T00:30:49.804Z,98987.50
2018-05-17T00:33:18.089Z,98986.05
2018-05-17T00:35:46.517Z,98983.47
2018-05-17T00:38:15.743Z,98991.61
2018-05-17T00:40:45.667Z,98990.36
2018-05-17T00:43:13.957Z,99007.11
2018-05-17T00:45:42.250Z,99013.94
2018-05-17T00:48:10.527Z,99012.83
2018-05-17T00:50:39.167Z,99016.88
2018-05-17T00:53:20.078Z,99000.66
2018-05-17T00:55:48.373Z,98987.75
2018-05-17T00:58:16.802Z,98983.07
2018-05-17T01:00:45.494Z,98995.27
2018-05-17T01:03:13.915Z,99003.53
2018-05-17T01:05:42.283Z,99005.45
2018-05-17T01:08:11.290Z,98992.45
2018-05-17T01:10:39.721Z,98985.00
2018-05-17T01:13:07.997Z,98982.18
2018-05-17T01:15:36.310Z,98980.98
2018-05-17T01:18:05.614Z,98976.81
2018-05-17T01:20:33.967Z,98979.31
2018-05-17T01:23:02.270Z,98985.72
2018-05-17T01:25:30.596Z,99004.64
2018-05-17T01:27:59.323Z,99014.81
2018-05-17T01:30:27.626Z,99025.71
2018-05-17T01:32:55.906Z,99032.73
2018-05-17T01:35:24.218Z,99043.28
2018-05-17T01:38:04.192Z,99040.43
2018-05-17T01:40:32.553Z,98996.42
2018-05-17T01:43:01.259Z,98988.33
2018-05-17T01:45:29.582Z,98973.13
2018-05-17T01:47:57.990Z,98993.44
2018-05-17T01:50:26.237Z,99004.34
2018-05-17T01:52:54.562Z,99000.55
2018-05-17T01:55:22.842Z,98993.44
2018-05-17T01:57:51.186Z,98995.00
2018-05-17T02:00:19.532Z,98981.14
2018-05-17T02:02:47.842Z,98992.17
2018-05-17T02:05:17.319Z,98983.72
2018-05-17T02:07:45.638Z,98986.87
2018-05-17T02:10:13.923Z,98984.16
2018-05-17T02:12:42.257Z,98987.97
2018-05-17T02:15:10.549Z,98990.73
2018-05-17T02:17:38.867Z,98990.42
2018-05-17T02:20:07.157Z,98985.72
2018-05-17T02:22:35.488Z,98980.05
2018-05-17T02:25:07.885Z,98980.97
2018-05-17T02:27:36.341Z,98975.27
2018-05-17T02:30:04.959Z,98969.98
2018-05-17T02:32:40.564Z,98974.32
2018-05-17T02:35:09.915Z,98979.20
2018-05-17T02:37:43.731Z,98980.28
2018-05-17T02:40:15.016Z,98985.48
2018-05-17T02:42:43.875Z,98988.16
2018-05-17T02:45:12.182Z,98988.69
2018-05-17T02:47:42.166Z,98989.03
2018-05-17T02:50:10.501Z,98989.52
2018-05-17T02:52:38.856Z,98991.05
2018-05-17T02:55:07.179Z,98992.70
2018-05-17T02:57:35.508Z,98985.06
2018-05-17T03:00:03.823Z,98987.20
2018-05-17T03:02:32.192Z,98988.34
2018-05-17T03:05:00.467Z,98989.28
2018-05-17T03:07:28.761Z,98992.09
2018-05-17T03:09:57.071Z,98991.95
2018-05-17T03:12:25.380Z,98990.53
2018-05-17T03:14:53.710Z,98997.38
2018-05-17T03:17:21.997Z,98995.22
2018-05-17T03:19:50.407Z,98995.75
2018-05-17T03:22:18.718Z,98993.09
2018-05-17T03:24:47.151Z,98982.98
2018-05-17T03:27:15.453Z,98987.97
2018-05-17T03:29:43.741Z,98993.23
2018-05-17T03:32:12.109Z,98996.16
2018-05-17T03:34:40.395Z,98996.47
2018-05-17T03:37:08.706Z,99002.80
2018-05-17T03:39:37.041Z,99004.09
2018-05-17T03:42:05.406Z,99000.05
2018-05-17T03:44:33.698Z,99006.85
2018-05-17T03:47:01.996Z,99001.19
2018-05-17T03:49:30.485Z,99014.57
2018-05-17T03:51:58.827Z,99015.42
2018-05-17T03:54:27.127Z,99016.88
2018-05-17T03:56:55.476Z,99018.53
2018-05-17T03:59:23.763Z,99017.33
2018-05-17T04:02:03.841Z,99013.44
2018-05-17T04:04:43.888Z,99019.11
2018-05-17T04:07:12.773Z,99016.44
2018-05-17T04:09:41.075Z,99020.10
2018-05-17T04:12:09.418Z,99024.64
2018-05-17T04:14:38.014Z,99021.59
2018-05-17T04:17:06.381Z,99016.56
2018-05-17T04:19:34.770Z,99025.14
2018-05-17T04:22:03.337Z,99022.11
2018-05-17T04:24:31.597Z,99022.69
2018-05-17T04:27:00.003Z,99019.15
2018-05-17T04:29:28.312Z,99012.16
2018-05-17T04:31:56.650Z,99026.33
2018-05-17T04:34:24.950Z,99032.70
2018-05-17T04:36:53.306Z,99032.46
2018-05-17T04:39:21.589Z,99037.03
2018-05-17T04:41:49.894Z,99034.19
2018-05-17T04:44:18.235Z,99035.05
2018-05-17T04:46:46.799Z,99040.63
2018-05-17T04:49:15.138Z,99038.75
2018-05-17T04:51:43.464Z,99053.59
2018-05-17T04:54:11.856Z,99053.09
2018-05-17T04:56:40.164Z,99046.52
2018-05-17T04:59:08.509Z,99048.67
2018-05-17T05:01:36.792Z,99046.81
2018-05-17T05:04:05.786Z,99041.42
2018-05-17T05:06:34.059Z,99037.86
2018-05-17T05:09:02.422Z,99041.82
2018-05-17T05:11:30.715Z,99038.80
2018-05-17T05:13:59.002Z,99041.30
2018-05-17T05:16:27.363Z,99034.96
2018-05-17T05:18:55.693Z,99034.06
2018-05-17T05:21:25.130Z,99042.03
2018-05-17T05:23:53.700Z,99056.50
2018-05-17T05:26:22.023Z,99049.13
2018-05-17T05:28:50.310Z,99050.67
2018-05-17T05:31:18.631Z,99054.16
2018-05-17T05:33:46.930Z,99051.53
2018-05-17T05:36:15.247Z,99059.39
2018-05-17T05:38:43.587Z,99048.23
2018-05-17T05:41:11.958Z,99053.83
2018-05-17T05:43:40.282Z,99059.73
2018-05-17T05:46:09.096Z,99063.75
2018-05-17T05:48:37.431Z,99062.41
2018-05-17T05:51:05.698Z,99073.70
2018-05-17T05:53:34.477Z,99066.66
2018-05-17T05:56:02.807Z,99076.28
2018-05-17T05:58:31.143Z,99080.83
2018-05-17T06:00:59.452Z,99084.50
2018-05-17T06:03:27.764Z,99082.37
2018-05-17T06:05:56.298Z,99087.64
2018-05-17T06:08:24.680Z,99091.17
2018-05-17T06:10:53.095Z,99082.69
2018-05-17T06:13:21.481Z,99098.02
2018-05-17T06:15:49.749Z,99093.75
2018-05-17T06:18:18.640Z,99098.66
2018-05-17T06:20:46.935Z,99095.23
2018-05-17T06:23:15.240Z,99105.33
2018-05-17T06:25:45.447Z,99098.25
2018-05-17T06:28:14.563Z,99107.27
2018-05-17T06:30:42.870Z,99104.86
2018-05-17T06:33:11.175Z,99102.83
2018-05-17T06:35:39.554Z,99104.75
2018-05-17T06:38:08.208Z,99111.84
2018-05-17T06:40:36.509Z,99107.12
2018-05-17T06:43:04.868Z,99110.97
2018-05-17T06:45:34.904Z,99107.08
2018-05-17T06:48:03.219Z,99112.21
2018-05-17T06:50:31.741Z,99128.29
2018-05-17T06:53:00.046Z,99118.56
2018-05-17T06:55:28.500Z,99116.41
2018-05-17T06:57:56.779Z,99119.95
2018-05-17T07:00:25.131Z,99126.08
2018-05-17T07:02:53.468Z,99124.84
2018-05-17T07:05:21.812Z,99126.13
2018-05-17T07:07:50.717Z,99130.11
2018-05-17T07:10:19.576Z,99131.32
2018-05-17T07:12:48.063Z,99128.98
2018-05-17T07:15:16.384Z,99129.72
2018-05-17T07:17:44.680Z,99136.12
2018-05-17T07:20:13.928Z,99138.45
2018-05-17T07:22:42.229Z,99132.95
2018-05-17T07:25:10.619Z,99137.85
2018-05-17T07:27:39.166Z,99140.31
2018-05-17T07:30:07.457Z,99143.80
2018-05-17T07:32:35.805Z,99128.54
2018-05-17T07:35:04.109Z,99140.13
2018-05-17T07:37:32.404Z,99146.79
2018-05-17T07:40:00.768Z,99149.33
2018-05-17T07:42:29.066Z,99150.51
2018-05-17T07:44:57.338Z,99148.46
2018-05-17T07:47:25.748Z,99154.69
2018-05-17T07:49:54.293Z,99158.25
2018-05-17T07:52:22.698Z,99158.31
2018-05-17T07:54:51.067Z,99156.75
2018-05-17T07:57:19.391Z,99151.53
2018-05-17T07:59:48.608Z,99156.41
2018-05-17T08:02:16.938Z,99151.31
2018-05-17T08:04:45.286Z,99151.86
2018-05-17T08:07:13.604Z,99166.98
2018-05-17T08:09:43.087Z,99168.70
2018-05-17T08:12:11.410Z,99167.81
2018-05-17T08:14:39.787Z,99177.49
2018-05-17T08:17:09.165Z,99175.55
2018-05-17T08:19:37.493Z,99175.21
2018-05-17T08:22:05.849Z,99175.00
2018-05-17T08:24:34.388Z,99167.18
2018-05-17T08:27:03.349Z,99176.35
2018-05-17T08:29:32.197Z,99174.55
2018-05-17T08:32:00.516Z,99172.44
2018-05-17T08:34:28.932Z,99177.50
2018-05-17T08:36:57.205Z,99176.91
2018-05-17T08:39:25.528Z,99173.88
2018-05-17T08:41:53.973Z,99176.08
2018-05-17T08:44:22.320Z,99187.53
2018-05-17T08:46:52.473Z,99185.05
2018-05-17T08:49:20.769Z,99186.73
2018-05-17T08:51:49.122Z,99191.34
2018-05-17T08:54:17.435Z,99183.32
2018-05-17T08:56:45.862Z,99187.66
2018-05-17T08:59:14.569Z,99190.06
2018-05-17T09:01:43.362Z,99186.58
2018-05-17T09:04:11.718Z,99189.03
2018-05-17T09:06:40.058Z,99195.63
2018-05-17T09:09:08.565Z,99192.73
2018-05-17T09:11:36.857Z,99184.73
2018-05-17T09:17:06.213Z,99193.80
2018-05-17T09:19:34.541Z,99197.49
2018-05-17T09:22:02.891Z,99193.56
2018-05-17T09:24:31.313Z,99203.59
2018-05-17T09:27:00.565Z,99192.06
2018-05-17T09:29:28.841Z,99180.01
2018-05-17T09:31:57.292Z,99193.89
2018-05-17T09:34:25.749Z,99192.46
2018-05-17T09:36:54.190Z,99198.10
2018-05-17T09:39:22.703Z,99201.08
2018-05-17T09:41:51.083Z,99193.60
2018-05-17T09:44:19.448Z,99193.66
2018-05-17T09:46:49.255Z,99192.13
2018-05-17T09:49:17.673Z,99192.13
2018-05-17T09:51:45.960Z,99199.89
2018-05-17T09:54:14.320Z,99188.00
2018-05-17T09:56:42.645Z,99191.98
2018-05-17T09:59:11.230Z,99192.67
2018-05-17T10:01:39.532Z,99195.75
2018-05-17T10:04:07.852Z,99195.03
2018-05-17T10:06:36.147Z,99197.16
2018-05-17T10:09:04.524Z,99196.44
2018-05-17T10:11:32.835Z,99190.98
2018-05-17T10:14:01.230Z,99184.80
2018-05-17T10:16:29.515Z,99187.29
2018-05-17T10:18:57.900Z,99188.30
2018-05-17T10:21:26.178Z,99180.70
2018-05-17T10:23:55.718Z,99186.13
2018-05-17T10:26:24.268Z,99184.16
2018-05-17T10:28:52.589Z,99175.30
2018-05-17T10:31:21.003Z,99183.97
2018-05-17T10:33:49.286Z,99174.02
2018-05-17T10:36:17.610Z,99178.63
2018-05-17T10:38:45.920Z,99167.17
2018-05-17T10:41:14.247Z,99175.18
2018-05-17T10:43:42.533Z,99183.78
2018-05-17T10:46:10.870Z,99180.11
2018-05-17T10:48:39.179Z,99176.69
2018-05-17T10:51:07.525Z,99174.20
2018-05-17T10:53:35.929Z,99182.95
2018-05-17T10:56:05.458Z,99176.37
2018-05-17T10:58:33.750Z,99181.02
2018-05-17T11:01:02.141Z,99177.41
2018-05-17T11:03:30.722Z,99182.42
2018-05-17T11:05:59.118Z,99167.36
2018-05-17T11:08:27.413Z,99186.16
2018-05-17T11:10:57.754Z,99184.39
2018-05-17T11:13:27.533Z,99175.05
2018-05-17T11:15:56.446Z,99175.26
2018-05-17T11:18:26.954Z,99082.20
2018-05-17T11:20:56.109Z,99186.75
2018-05-17T11:23:24.468Z,99181.46
2018-05-17T11:25:53.350Z,99185.56
2018-05-17T11:28:21.775Z,99179.47
2018-05-17T11:30:50.055Z,99188.08
2018-05-17T11:33:18.511Z,99181.60
2018-05-17T11:35:46.846Z,99173.02
2018-05-17T11:38:15.341Z,99181.96
2018-05-17T11:40:43.595Z,99174.21
2018-05-17T11:43:12.925Z,99176.23
2018-05-17T11:45:41.359Z,99169.94
2018-05-17T11:48:09.697Z,99169.56
2018-05-17T11:50:38.019Z,99168.73
2018-05-17T11:53:06.370Z,99175.94
2018-05-17T11:55:34.750Z,99171.91
2018-05-17T11:58:03.070Z,99168.42
2018-05-17T12:00:31.372Z,99176.62
2018-05-17T12:02:59.831Z,99177.36
2018-05-17T12:05:28.162Z,99173.48
2018-05-17T12:07:56.650Z,99172.84
2018-05-17T12:10:25.636Z,99171.25
2018-05-17T12:12:53.957Z,99169.02
2018-05-17T12:15:22.290Z,99163.22
2018-05-17T12:17:50.702Z,99160.76
2018-05-17T12:20:19.064Z,99162.19
2018-05-17T12:22:47.339Z,99161.53
2018-05-17T12:25:16.939Z,99175.05
2018-05-17T12:27:48.406Z,99158.15
2018-05-17T12:30:17.447Z,99157.27
2018-05-17T12:32:46.191Z,99146.13
2018-05-17T12:35:14.563Z,99143.36
2018-05-17T12:37:42.948Z,99155.27
2018-05-17T12:40:11.981Z,99154.78
2018-05-17T12:42:40.365Z,99165.56
2018-05-17T12:45:08.699Z,99172.10
2018-05-17T12:47:37.155Z,99167.52
2018-05-17T12:50:06.407Z,99168.64
2018-05-17T12:52:35.660Z,99160.90
2018-05-17T12:55:03.976Z,99167.40
2018-05-17T12:57:32.314Z,99160.30
2018-05-17T13:00:00.647Z,99159.88
2018-05-17T13:02:29.010Z,99160.58
2018-05-17T13:04:57.361Z,99144.20
2018-05-17T13:07:25.685Z,99159.18
2018-05-17T13:09:54.224Z,99169.16
2018-05-17T13:12:22.575Z,99162.78
2018-05-17T13:14:51.656Z,99160.61
2018-05-17T13:17:20.381Z,99159.16
2018-05-17T13:19:49.461Z,99163.14
2018-05-17T13:22:17.820Z,99155.02
2018-05-17T13:24:47.098Z,99159.05
2018-05-17T13:27:15.583Z,99147.66
2018-05-17T13:29:43.923Z,99138.84
2018-05-17T13:32:12.334Z,99151.53
2018-05-17T13:34:40.776Z,99151.50
2018-05-17T13:37:09.088Z,99154.27
2018-05-17T13:39:37.436Z,99155.78
2018-05-17T13:42:05.765Z,99160.63
2018-05-17T13:44:34.325Z,99161.55
2018-05-17T13:47:02.605Z,99148.02
2018-05-17T13:49:32.386Z,99151.97
2018-05-17T13:52:00.722Z,99148.73
2018-05-17T13:54:29.116Z,99158.33
2018-05-17T13:56:58.045Z,99159.67
2018-05-17T13:59:26.470Z,99156.74
2018-05-17T14:01:54.774Z,99158.39
2018-05-17T14:04:23.109Z,99163.16
2018-05-17T14:06:51.359Z,99152.55
2018-05-17T14:09:19.670Z,99153.06
2018-05-17T14:11:48.017Z,99162.20
2018-05-17T14:14:16.381Z,99159.28
2018-05-17T14:16:44.863Z,99160.61
2018-05-17T14:19:13.162Z,99154.40
2018-05-17T14:21:41.529Z,99151.20
2018-05-17T14:24:10.126Z,99152.89
2018-05-17T14:26:39.428Z,99146.09
2018-05-17T14:29:07.825Z,99155.66
2018-05-17T14:31:36.202Z,99149.53
2018-05-17T14:34:04.952Z,99142.95
2018-05-17T14:36:33.307Z,99157.92
2018-05-17T14:39:01.721Z,99157.78
2018-05-17T14:41:30.107Z,99159.57
2018-05-17T14:43:58.394Z,99158.40
2018-05-17T14:46:26.861Z,99156.92
2018-05-17T14:48:55.180Z,99165.64
2018-05-17T14:51:23.534Z,99164.22
2018-05-17T14:53:51.985Z,99171.18
2018-05-17T14:56:20.339Z,99168.55
2018-05-17T14:58:49.586Z,99170.02
2018-05-17T15:01:18.028Z,99167.26
2018-05-17T15:03:46.245Z,99164.97
2018-05-17T15:06:14.761Z,99159.34
2018-05-17T15:08:43.239Z,99158.38
2018-05-17T15:11:14.756Z,99160.66
2018-05-17T15:13:39.814Z,99166.63
2018-05-17T15:16:08.711Z,99161.99
2018-05-17T15:18:36.987Z,99161.79
2018-05-17T15:21:05.726Z,99148.63
2018-05-17T15:23:34.082Z,99161.53
2018-05-17T15:26:02.367Z,99147.11
2018-05-17T15:28:30.689Z,99156.28
2018-05-17T15:30:58.997Z,99152.23
2018-05-17T15:33:27.281Z,99156.12
2018-05-17T15:35:55.592Z,99154.91
2018-05-17T15:38:24.142Z,99151.53
2018-05-17T15:40:52.543Z,99155.65
2018-05-17T15:43:20.854Z,99158.88
2018-05-17T15:45:49.251Z,99151.53
2018-05-17T15:48:18.576Z,99162.92
2018-05-17T15:50:46.827Z,99163.98
2018-05-17T15:53:15.260Z,99165.75
2018-05-17T15:55:44.032Z,99165.52
2018-05-17T15:58:13.891Z,99165.97
2018-05-17T16:00:42.360Z,99163.54
2018-05-17T16:03:10.707Z,99173.69
2018-05-17T16:05:39.347Z,99165.63
2018-05-17T16:08:08.004Z,99134.45
2018-05-17T16:10:38.441Z,99146.81
2018-05-17T16:13:06.823Z,99149.63
2018-05-17T16:15:35.450Z,99148.07
2018-05-17T16:18:04.748Z,99146.69
2018-05-17T16:20:37.704Z,99156.53
2018-05-17T16:23:06.724Z,99147.85
2018-05-17T16:25:35.346Z,99154.55
2018-05-17T16:28:03.832Z,99143.44
2018-05-17T16:30:32.171Z,99160.19
2018-05-17T16:33:02.167Z,99155.80
2018-05-17T16:35:30.832Z,99158.72
2018-05-17T16:38:03.024Z,99159.98
2018-05-17T16:40:31.595Z,99153.59
2018-05-17T16:43:08.454Z,99150.55
2018-05-17T16:45:37.252Z,99156.96
2018-05-17T16:48:06.487Z,99163.83
2018-05-17T16:50:37.513Z,99149.36
2018-05-17T16:53:07.751Z,99149.69
2018-05-17T16:55:41.429Z,99164.66
2018-05-17T16:58:11.793Z,99158.09
2018-05-17T17:00:45.032Z,99153.13
2018-05-17T17:03:15.587Z,99158.86
2018-05-17T17:05:52.775Z,99166.11
2018-05-17T17:08:28.837Z,99164.13
2018-05-17T17:13:38.200Z,99166.12
2018-05-17T17:16:07.083Z,99165.52
2018-05-17T17:18:37.303Z,99177.30
2018-05-17T17:21:05.964Z,99182.41
2018-05-17T17:23:34.853Z,99175.83
2018-05-17T17:26:03.372Z,99169.67
2018-05-17T17:28:32.081Z,99160.16
2018-05-17T17:31:00.465Z,99180.59
2018-05-17T17:33:28.672Z,99174.77
2018-05-17T17:35:57.153Z,99178.66
2018-05-17T17:38:25.558Z,99181.92
2018-05-17T17:40:53.977Z,99178.02
2018-05-17T17:43:22.292Z,99178.86
2018-05-17T17:45:50.627Z,99182.31
2018-05-17T17:48:18.947Z,99178.73
2018-05-17T17:50:47.279Z,99183.20
2018-05-17T17:53:15.629Z,99180.28
2018-05-17T17:55:44.824Z,99179.04
2018-05-17T17:58:13.125Z,99178.77
2018-05-17T18:00:41.699Z,99182.58
2018-05-17T18:03:10.028Z,99189.42
2018-05-17T18:05:38.423Z,99194.77
2018-05-17T18:08:06.699Z,99186.69
2018-05-17T18:10:35.061Z,99194.33
2018-05-17T18:13:04.082Z,99199.01
2018-05-17T18:15:32.871Z,99201.86
2018-05-17T18:18:02.082Z,99197.47
2018-05-17T18:20:34.130Z,99197.31
2018-05-17T18:23:04.494Z,99200.44
2018-05-17T18:25:35.722Z,99206.90
2018-05-17T18:28:05.319Z,99206.46
2018-05-17T18:30:33.837Z,99211.03
2018-05-17T18:33:06.283Z,99101.30
2018-05-17T18:35:34.886Z,99212.77
2018-05-17T18:38:03.613Z,99211.90
2018-05-17T18:40:32.648Z,99212.91
2018-05-17T18:43:01.191Z,99220.02
2018-05-17T18:45:29.529Z,99220.61
2018-05-17T18:47:57.997Z,99211.01
2018-05-17T18:50:30.142Z,99224.75
2018-05-17T18:53:01.440Z,99221.91
2018-05-17T18:55:35.501Z,99226.41
2018-05-17T18:58:04.803Z,99223.54
2018-05-17T19:00:33.182Z,99229.19
2018-05-17T19:03:01.658Z,99238.03
2018-05-17T19:05:31.732Z,99237.03
2018-05-17T19:08:00.190Z,99241.00
2018-05-17T19:10:29.493Z,99252.93
2018-05-17T19:12:57.892Z,99256.52
2018-05-17T19:15:26.276Z,99262.48
2018-05-17T19:17:54.945Z,99251.12
2018-05-17T19:20:23.501Z,99262.27
2018-05-17T19:22:51.811Z,99270.11
2018-05-17T19:25:20.197Z,99268.75
2018-05-17T19:27:48.698Z,99268.21
2018-05-17T19:30:18.091Z,99266.22
2018-05-17T19:32:46.586Z,99266.67
2018-05-17T19:35:14.919Z,99265.96
2018-05-17T19:37:44.312Z,99243.05
2018-05-17T19:40:13.292Z,99257.64
2018-05-17T19:42:41.643Z,99276.55
2018-05-17T19:45:11.170Z,99280.27
2018-05-17T19:47:39.540Z,99277.36
2018-05-17T19:50:09.321Z,99279.74
2018-05-17T19:52:38.234Z,99279.38
2018-05-17T19:55:06.663Z,99281.22
2018-05-17T19:57:35.279Z,99282.66
2018-05-17T20:00:06.300Z,99284.91
2018-05-17T20:02:37.403Z,99286.56
2018-05-17T20:05:06.376Z,99283.55
2018-05-17T20:07:34.680Z,99285.64
2018-05-17T20:10:03.418Z,99289.98
2018-05-17T20:12:32.416Z,99285.63
2018-05-17T20:15:02.498Z,99286.16
2018-05-17T20:17:39.870Z,99290.13
2018-05-17T20:20:12.414Z,99286.53
2018-05-17T20:22:42.213Z,99293.88
2018-05-17T20:25:11.157Z,99289.83
2018-05-17T20:27:39.841Z,99288.79
2018-05-17T20:30:08.716Z,99289.36
2018-05-17T20:32:39.584Z,99289.68
2018-05-17T20:35:07.946Z,99291.06
2018-05-17T20:37:37.154Z,99294.29
2018-05-17T20:40:05.589Z,99292.07
2018-05-17T20:42:34.062Z,99286.66
2018-05-17T20:45:02.388Z,99288.08
2018-05-17T20:47:32.407Z,99287.89
2018-05-17T20:50:01.010Z,99291.72
2018-05-17T20:52:29.867Z,99281.29
2018-05-17T20:54:58.309Z,99291.17
2018-05-17T20:57:27.007Z,99294.77
2018-05-17T20:59:55.283Z,99292.28
2018-05-17T21:02:23.870Z,99299.16
2018-05-17T21:04:52.220Z,99300.98
2018-05-17T21:07:23.068Z,99297.08
2018-05-17T21:09:51.505Z,99306.34
2018-05-17T21:12:20.189Z,99303.20
2018-05-17T21:14:48.567Z,99301.31
2018-05-17T21:17:16.855Z,99302.31
2018-05-17T21:19:45.883Z,99301.65
2018-05-17T21:22:14.228Z,99302.13
2018-05-17T21:24:42.611Z,99308.83
2018-05-17T21:27:11.003Z,99303.92
2018-05-17T21:29:39.239Z,99302.80
2018-05-17T21:32:07.711Z,99310.99
2018-05-17T21:34:37.248Z,99310.80
2018-05-17T21:37:05.614Z,99304.66
2018-05-17T21:39:34.431Z,99302.22
2018-05-17T21:42:02.657Z,99299.11
2018-05-17T21:44:31.021Z,99296.20
2018-05-17T21:46:59.331Z,99303.67
2018-05-17T21:49:27.832Z,99309.89
2018-05-17T21:51:56.440Z,99301.40
2018-05-17T21:54:25.730Z,99303.05
2018-05-17T21:56:54.015Z,99306.44
2018-05-17T21:59:22.310Z,99314.16
2018-05-17T22:01:50.721Z,99313.66
2018-05-17T22:04:19.071Z,99310.60
2018-05-17T22:06:48.467Z,99318.94
2018-05-17T22:09:17.974Z,99316.66
2018-05-17T22:11:48.721Z,99321.94
2018-05-17T22:14:17.039Z,99324.71
2018-05-17T22:16:46.164Z,99338.64
2018-05-17T22:19:14.544Z,99332.89
2018-05-17T22:21:44.356Z,99329.22
2018-05-17T22:24:12.769Z,99331.30
2018-05-17T22:26:41.195Z,99331.45
2018-05-17T22:29:09.594Z,99335.73
2018-05-17T22:31:38.182Z,99333.30
2018-05-17T22:34:06.695Z,99330.33
2018-05-17T22:36:35.050Z,99329.76
2018-05-17T22:39:03.310Z,99329.14
2018-05-17T22:41:31.684Z,99331.69
2018-05-17T22:44:00.084Z,99329.14
2018-05-17T22:46:28.665Z,99329.19
2018-05-17T22:48:56.969Z,99333.61
2018-05-17T22:51:25.392Z,99331.56
2018-05-17T22:53:54.551Z,99326.66
2018-05-17T22:56:34.474Z,99326.66
2018-05-17T22:59:03.770Z,99329.27
2018-05-17T23:01:32.068Z,99330.29
2018-05-17T23:04:00.735Z,99327.72
2018-05-17T23:06:29.110Z,99330.63
2018-05-17T23:08:58.775Z,99329.61
2018-05-17T23:11:27.091Z,99330.36
2018-05-17T23:13:55.505Z,99331.33
2018-05-17T23:16:23.846Z,99335.08
2018-05-17T23:18:52.325Z,99329.76
2018-05-17T23:21:20.944Z,99334.38
2018-05-17T23:23:49.411Z,99332.64
2018-05-17T23:26:17.769Z,99334.22
2018-05-17T23:28:46.059Z,99334.48
2018-05-17T23:31:15.072Z,99331.84
2018-05-17T23:33:43.407Z,99330.16
2018-05-17T23:36:11.734Z,99319.47
2018-05-17T23:38:40.077Z,99328.91
2018-05-17T23:44:17.507Z,99331.05
2018-05-17T23:46:46.279Z,99330.52
2018-05-17T23:49:14.581Z,99334.62
2018-05-17T23:51:42.948Z,99328.88
2018-05-17T23:54:11.331Z,99326.62
2018-05-17T23:56:39.619Z,99326.07
2018-05-17T23:59:07.967Z,99325.69
